Time;durP1;ratioP1;P1;durP2;ratioP2;P2;SDS_P1;SDS_P2;PMS_P1;PMS_P2;Temp;Humidity;BMP_temperature;BMP_pressure;BME280_temperature;BME280_humidity;BME280_pressure;Samples;Min_cycle;Max_cycle;Signal;HPM_P1;HPM_P2
2021/03/23 00:01:21;;;;;;;16.88;3.17;;;;;;;16.24;70.24;99925.22;4970142;28;20055;-65
2021/03/23 00:03:51;;;;;;;15.27;2.35;;;;;;;16.25;70.26;99937.63;4970895;28;20070;-65
2021/03/23 00:06:22;;;;;;;18.48;3.38;;;;;;;16.31;70.59;99937.50;4970633;28;20670;-66
2021/03/23 00:08:51;;;;;;;15.30;4.25;;;;;;;16.27;70.63;99927.84;4970697;28;20041;-66
2021/03/23 00:11:22;;;;;;;14.43;3.13;;;;;;;16.22;70.97;99923.50;4970225;28;20071;-66
2021/03/23 00:13:50;;;;;;;12.57;4.60;;;;;;;16.25;71.17;99920.78;4971663;28;20454;-65
2021/03/23 00:16:21;;;;;;;18.35;4.00;;;;;;;16.38;71.04;99908.06;4981431;28;20121;-66
2021/03/23 00:18:48;;;;;;;17.98;4.07;;;;;;;16.43;70.94;99909.72;4974555;28;20045;-66
2021/03/23 00:21:16;;;;;;;14.88;2.42;;;;;;;16.51;71.16;99902.44;4970249;28;20117;-66
2021/03/23 00:23:44;;;;;;;13.43;2.00;;;;;;;16.58;71.15;99908.50;4969782;28;20039;-67
2021/03/23 00:26:13;;;;;;;15.38;3.28;;;;;;;16.64;71.33;99911.94;4970031;28;20066;-66
2021/03/23 00:28:46;;;;;;;14.65;2.33;;;;;;;16.69;71.59;99911.81;4970086;28;20070;-66
2021/03/23 00:31:13;;;;;;;17.95;3.70;;;;;;;16.72;72.03;99917.09;4970512;28;20082;-66
2021/03/23 00:33:41;;;;;;;24.85;3.20;;;;;;;16.78;72.24;99908.09;4970013;28;20045;-66
2021/03/23 00:36:10;;;;;;;22.55;3.17;;;;;;;16.78;72.56;99914.28;4971086;28;20045;-65
2021/03/23 00:38:39;;;;;;;27.98;3.80;;;;;;;16.82;72.55;99907.09;4964013;28;20043;-66
2021/03/23 00:41:08;;;;;;;26.33;4.07;;;;;;;16.83;72.80;99903.50;4955057;29;20043;-67
2021/03/23 00:43:38;;;;;;;21.38;3.75;;;;;;;16.81;72.78;99913.31;4954644;29;20067;-66
2021/03/23 00:46:05;;;;;;;24.58;3.10;;;;;;;16.78;72.80;99908.09;4963032;28;20063;-66
2021/03/23 00:48:32;;;;;;;21.50;3.13;;;;;;;16.78;72.64;99900.97;4967512;28;20158;-66
2021/03/23 00:51:01;;;;;;;15.95;3.33;;;;;;;16.77;72.52;99907.22;4937900;28;20456;-66
2021/03/23 00:53:28;;;;;;;22.55;2.92;;;;;;;16.75;72.52;99901.03;4959499;28;20427;-66
2021/03/23 00:55:58;;;;;;;22.40;2.92;;;;;;;16.71;72.58;99904.69;4955640;28;20142;-66
2021/03/23 00:58:25;;;;;;;25.98;4.13;;;;;;;16.72;72.38;99894.00;4955824;28;20066;-66
2021/03/23 01:00:52;;;;;;;20.92;2.95;;;;;;;16.77;72.21;99893.00;4968093;28;20053;-66
2021/03/23 01:03:19;;;;;;;24.65;3.70;;;;;;;16.78;72.34;99892.97;4965643;28;20104;-68
2021/03/23 01:05:49;;;;;;;22.70;3.55;;;;;;;16.77;72.20;99887.66;4958185;28;20066;-66
2021/03/23 01:08:19;;;;;;;18.95;2.85;;;;;;;16.78;71.87;99894.75;4956132;28;20047;-66
2021/03/23 01:10:46;;;;;;;23.52;2.85;;;;;;;16.77;71.72;99885.00;4969276;28;20043;-66
2021/03/23 01:13:13;;;;;;;26.15;5.25;;;;;;;16.75;71.45;99890.38;4954318;29;20035;-66
2021/03/23 01:15:40;;;;;;;13.10;2.60;;;;;;;16.77;71.28;99885.88;4959046;28;20061;-66
2021/03/23 01:18:07;;;;;;;17.25;2.47;;;;;;;16.76;71.01;99886.78;4970478;28;20574;-65
2021/03/23 01:20:34;;;;;;;21.02;3.22;;;;;;;16.74;70.86;99880.59;4954808;28;20071;-66
2021/03/23 01:23:02;;;;;;;15.02;2.75;;;;;;;16.75;70.72;99879.69;4954187;29;20564;-66
2021/03/23 01:25:30;;;;;;;21.52;2.40;;;;;;;16.74;70.52;99885.94;4968020;28;20054;-67
2021/03/23 01:27:57;;;;;;;18.77;2.67;;;;;;;16.73;70.36;99887.75;4973070;28;20101;-66
2021/03/23 01:30:28;;;;;;;18.05;2.80;;;;;;;16.75;70.27;99890.38;4971262;28;20162;-65
2021/03/23 01:32:56;;;;;;;22.73;3.88;;;;;;;16.72;70.33;99891.34;4970044;28;20046;-66
2021/03/23 01:35:25;;;;;;;18.65;3.70;;;;;;;16.74;70.14;99885.94;4953481;28;20126;-66
2021/03/23 01:37:52;;;;;;;18.65;2.92;;;;;;;16.74;69.99;99881.50;4963471;28;20046;-66
2021/03/23 01:40:23;;;;;;;20.17;3.20;;;;;;;16.67;70.10;99882.53;4957832;28;20062;-66
2021/03/23 01:42:55;;;;;;;19.25;3.88;;;;;;;16.63;69.86;99878.22;4972708;28;20039;-65
2021/03/23 01:45:32;;;;;;;15.48;2.50;;;;;;;16.65;69.75;99876.41;4971439;28;20073;-66
2021/03/23 01:48:01;;;;;;;16.15;2.88;;;;;;;16.64;69.59;99877.31;4965867;28;20039;-66
2021/03/23 01:50:29;;;;;;;16.58;2.50;;;;;;;16.66;69.58;99872.81;4968689;28;20047;-66
2021/03/23 01:53:03;;;;;;;23.35;3.08;;;;;;;16.69;69.54;99879.84;4953847;28;20040;-66
2021/03/23 01:55:31;;;;;;;18.60;2.72;;;;;;;16.68;69.40;99883.44;4954278;28;20126;-66
2021/03/23 01:58:01;;;;;;;18.67;2.80;;;;;;;16.68;69.30;99881.63;4953804;28;20139;-66
2021/03/23 02:00:27;;;;;;;17.00;3.17;;;;;;;16.69;69.32;99877.19;4971590;28;20098;-66
2021/03/23 02:02:54;;;;;;;19.63;3.38;;;;;;;16.69;69.25;99880.72;4971342;28;20046;-66
2021/03/23 02:05:27;;;;;;;11.48;2.22;;;;;;;16.74;69.22;99883.28;4971790;28;20088;-66
2021/03/23 02:07:56;;;;;;;16.15;2.42;;;;;;;16.71;69.02;99881.59;4957501;28;20094;-66
2021/03/23 02:10:23;;;;;;;17.92;2.38;;;;;;;16.73;68.85;99882.44;4953137;28;20039;-66
2021/03/23 02:12:52;;;;;;;19.77;2.88;;;;;;;16.67;68.62;99871.88;4953398;28;20066;-66
2021/03/23 02:15:23;;;;;;;16.90;2.03;;;;;;;16.59;68.46;99871.19;4964368;28;20066;-66
2021/03/23 02:18:12;;;;;;;17.88;2.53;;;;;;;16.62;68.32;99859.59;4956981;28;20572;-67
2021/03/23 02:20:58;;;;;;;20.15;2.88;;;;;;;16.61;68.36;99860.50;4954368;28;20063;-66
2021/03/23 02:23:26;;;;;;;16.85;2.85;;;;;;;16.63;68.29;99853.34;4952837;28;20575;-66
2021/03/23 02:25:54;;;;;;;20.75;2.45;;;;;;;16.66;68.17;99848.84;4954001;28;20046;-66
2021/03/23 02:28:21;;;;;;;19.08;2.90;;;;;;;16.65;68.12;99841.75;4971715;28;20046;-67
2021/03/23 02:30:51;;;;;;;18.98;2.90;;;;;;;16.63;68.23;99846.22;4970920;28;20121;-66
2021/03/23 02:33:19;;;;;;;15.95;2.80;;;;;;;16.61;68.30;99850.72;4971772;28;20577;-66
2021/03/23 02:35:48;;;;;;;17.33;2.63;;;;;;;16.61;68.26;99845.38;4971394;28;20415;-65
2021/03/23 02:38:15;;;;;;;13.25;2.78;;;;;;;16.60;68.39;99848.09;4970114;28;20051;-66
2021/03/23 02:40:43;;;;;;;13.70;2.53;;;;;;;16.61;68.43;99847.16;4952603;28;20431;-66
2021/03/23 02:43:11;;;;;;;17.85;2.35;;;;;;;16.62;68.50;99844.47;4967593;28;20094;-66
2021/03/23 02:45:41;;;;;;;14.00;2.70;;;;;;;16.62;68.57;99846.25;4952238;28;20047;-66
2021/03/23 02:48:09;;;;;;;18.42;3.20;;;;;;;16.64;68.61;99844.44;4959593;28;20050;-66
2021/03/23 02:50:36;;;;;;;15.82;2.83;;;;;;;16.66;68.71;99846.16;4965866;28;20073;-66
2021/03/23 02:53:04;;;;;;;16.20;2.65;;;;;;;16.71;68.70;99843.38;4953128;28;20039;-66
2021/03/23 02:55:31;;;;;;;18.85;4.03;;;;;;;16.73;68.57;99849.56;4957791;28;20041;-66
2021/03/23 02:57:58;;;;;;;16.55;3.38;;;;;;;16.75;68.53;99847.72;4952903;28;20058;-66
2021/03/23 03:00:26;;;;;;;14.13;2.25;;;;;;;16.74;68.39;99836.19;4952435;28;20118;-66
2021/03/23 03:02:53;;;;;;;14.38;2.58;;;;;;;16.69;68.37;99838.09;4957764;28;20142;-66
2021/03/23 03:05:20;;;;;;;17.15;3.65;;;;;;;16.63;68.66;99840.91;4970117;28;20082;-65
2021/03/23 03:07:47;;;;;;;18.77;2.45;;;;;;;16.60;68.79;99834.78;4960095;28;20122;-66
2021/03/23 03:10:16;;;;;;;18.15;2.53;;;;;;;16.60;68.66;99840.13;4964403;28;20105;-66
2021/03/23 03:12:44;;;;;;;14.15;2.08;;;;;;;16.58;68.01;99836.56;4971311;28;20108;-66
2021/03/23 03:15:13;;;;;;;12.52;2.20;;;;;;;16.59;67.77;99841.88;4970115;28;20084;-66
2021/03/23 03:17:39;;;;;;;11.68;1.90;;;;;;;16.60;67.44;99829.47;4955417;28;20122;-66
2021/03/23 03:20:08;;;;;;;15.25;1.95;;;;;;;16.63;67.19;99826.69;4963262;28;20051;-67
2021/03/23 03:22:35;;;;;;;14.48;1.98;;;;;;;16.60;66.88;99824.13;4952971;28;20039;-66
2021/03/23 03:25:04;;;;;;;15.15;2.22;;;;;;;16.61;66.75;99821.41;4952457;28;20130;-66
2021/03/23 03:27:32;;;;;;;16.15;2.88;;;;;;;16.62;66.59;99820.50;4951977;28;20043;-66
2021/03/23 03:29:59;;;;;;;14.93;2.00;;;;;;;16.63;66.62;99832.03;4971343;28;20129;-67
2021/03/23 03:32:27;;;;;;;18.13;2.78;;;;;;;16.61;66.53;99823.19;4956428;28;20106;-66
2021/03/23 03:34:53;;;;;;;9.23;1.70;;;;;;;16.60;66.41;99825.00;4969306;28;20042;-66
2021/03/23 03:37:21;;;;;;;12.85;1.85;;;;;;;16.60;66.11;99826.78;4969304;28;20126;-67
2021/03/23 03:39:48;;;;;;;13.38;2.13;;;;;;;16.59;66.08;99825.88;4969824;28;20117;-66
2021/03/23 03:42:15;;;;;;;14.52;2.33;;;;;;;16.59;65.84;99830.31;4971366;28;20065;-66
2021/03/23 03:44:42;;;;;;;14.68;1.88;;;;;;;16.59;65.85;99831.22;4961873;28;20039;-66
2021/03/23 03:47:11;;;;;;;12.32;1.92;;;;;;;16.58;65.73;99831.25;4964554;28;20453;-66
2021/03/23 03:49:37;;;;;;;14.00;1.73;;;;;;;16.57;65.46;99830.34;4988578;28;20062;-66
2021/03/23 03:52:06;;;;;;;13.95;1.90;;;;;;;16.56;65.52;99825.94;4961783;28;20122;-66
2021/03/23 03:54:33;;;;;;;12.98;1.70;;;;;;;16.59;65.49;99835.66;4962860;28;20043;-66
2021/03/23 03:57:00;;;;;;;16.48;2.42;;;;;;;16.61;65.29;99833.84;4952991;28;20130;-66
2021/03/23 03:59:27;;;;;;;14.65;2.22;;;;;;;16.53;65.72;99828.69;4957796;28;20043;-66
2021/03/23 04:01:55;;;;;;;17.52;2.50;;;;;;;16.49;66.48;99834.09;4959459;28;20047;-66
2021/03/23 04:04:22;;;;;;;21.17;3.17;;;;;;;16.40;67.38;99837.88;4960076;28;20390;-67
2021/03/23 04:06:50;;;;;;;12.20;2.67;;;;;;;16.25;68.20;99838.22;4955189;28;20094;-66
2021/03/23 04:09:17;;;;;;;13.02;2.47;;;;;;;16.17;68.85;99850.81;4965098;28;20044;-66
2021/03/23 04:11:44;;;;;;;15.23;2.38;;;;;;;16.11;69.20;99848.28;4970051;28;20162;-66
2021/03/23 04:14:11;;;;;;;19.27;2.92;;;;;;;16.07;69.42;99850.16;4974895;28;20126;-66
2021/03/23 04:16:38;;;;;;;21.92;4.05;;;;;;;16.05;69.66;99846.66;4964828;28;20059;-66
2021/03/23 04:19:06;;;;;;;20.10;4.88;;;;;;;15.89;70.00;99846.09;4974763;28;20129;-66
2021/03/23 04:21:34;;;;;;;16.42;3.63;;;;;;;15.84;69.78;99847.97;4973990;28;20219;-67
2021/03/23 04:24:01;;;;;;;20.98;3.88;;;;;;;15.75;70.11;99852.63;4962519;28;20040;-66
2021/03/23 04:26:29;;;;;;;17.70;4.53;;;;;;;15.67;70.12;99849.22;4972434;28;20561;-66
2021/03/23 04:28:56;;;;;;;15.23;3.53;;;;;;;15.60;69.94;99848.47;4968891;28;20046;-66
2021/03/23 04:31:32;;;;;;;29.10;4.45;;;;;;;15.57;69.99;99845.84;4972839;28;20082;-66
2021/03/23 04:33:59;;;;;;;20.23;3.83;;;;;;;15.57;70.03;99856.50;4974348;28;20078;-67
2021/03/23 04:36:28;;;;;;;23.25;3.90;;;;;;;15.58;69.70;99852.06;4965224;28;20133;-67
2021/03/23 04:38:55;;;;;;;18.98;3.65;;;;;;;15.64;69.25;99860.78;4957058;28;20067;-66
2021/03/23 04:41:22;;;;;;;10.48;2.92;;;;;;;15.68;68.86;99851.88;4955675;28;20066;-66
2021/03/23 04:43:51;;;;;;;23.58;2.97;;;;;;;15.77;68.39;99856.97;4968083;28;20034;-66
2021/03/23 04:46:21;;;;;;;18.60;2.70;;;;;;;15.83;68.22;99854.19;4974039;28;20126;-66
2021/03/23 04:48:48;;;;;;;19.38;4.00;;;;;;;15.87;68.15;99847.03;4986744;28;20046;-66
2021/03/23 04:51:17;;;;;;;14.25;2.40;;;;;;;15.91;67.84;99846.06;4971612;28;20679;-66
2021/03/23 04:53:45;;;;;;;18.48;2.58;;;;;;;15.93;67.88;99862.88;4960979;28;20122;-66
2021/03/23 04:56:20;;;;;;;13.70;2.42;;;;;;;15.95;67.53;99855.72;4972617;28;20039;-66
2021/03/23 04:58:47;;;;;;;16.65;3.33;;;;;;;15.95;67.54;99847.72;4973648;28;20491;-67
2021/03/23 05:01:14;;;;;;;18.58;3.45;;;;;;;15.96;67.39;99849.50;4984723;28;20125;-66
2021/03/23 05:03:41;;;;;;;20.10;2.83;;;;;;;16.00;66.89;99855.66;4986319;28;20062;-66
2021/03/23 05:06:09;;;;;;;16.35;3.13;;;;;;;16.00;66.35;99858.31;4973409;28;20583;-67
2021/03/23 05:08:38;;;;;;;19.90;2.72;;;;;;;16.06;65.75;99852.84;4969328;28;20109;-66
2021/03/23 05:11:08;;;;;;;17.50;3.35;;;;;;;16.07;65.35;99865.25;4955513;28;20035;-66
2021/03/23 05:13:36;;;;;;;18.55;6.22;;;;;;;16.12;65.09;99863.38;4954312;28;20451;-66
2021/03/23 05:16:03;;;;;;;14.82;4.30;;;;;;;16.15;64.54;99865.94;4955408;28;20126;-66
2021/03/23 05:18:30;;;;;;;23.88;3.42;;;;;;;16.16;64.46;99865.03;4955975;28;20121;-66
2021/03/23 05:20:57;;;;;;;18.02;2.88;;;;;;;16.21;64.60;99865.84;4972154;28;20129;-66
2021/03/23 05:23:25;;;;;;;21.13;2.85;;;;;;;16.26;64.20;99861.28;4969250;28;20078;-67
2021/03/23 05:25:53;;;;;;;16.23;3.25;;;;;;;16.34;64.09;99859.34;4959559;28;20531;-66
2021/03/23 05:28:22;;;;;;;21.40;3.13;;;;;;;16.42;63.75;99870.66;4972928;28;20049;-66
2021/03/23 05:30:50;;;;;;;13.88;2.63;;;;;;;16.54;63.67;99865.06;4955785;28;20071;-66
2021/03/23 05:33:18;;;;;;;14.75;3.38;;;;;;;16.62;63.55;99873.78;4968451;28;20459;-66
2021/03/23 05:35:45;;;;;;;14.30;2.47;;;;;;;16.76;63.60;99876.13;4961317;28;20043;-66
2021/03/23 05:38:13;;;;;;;21.27;4.18;;;;;;;16.82;63.50;99875.97;4956121;28;20631;-66
2021/03/23 05:40:44;;;;;;;16.45;3.17;;;;;;;16.95;63.30;99885.44;4957526;28;20101;-66
2021/03/23 05:43:41;;;;;;;13.10;2.35;;;;;;;17.01;63.09;99889.72;4967994;28;20590;-66
2021/03/23 05:46:24;;;;;;;20.33;2.90;;;;;;;16.98;63.01;99888.03;4941046;28;20130;-66
2021/03/23 05:49:05;;;;;;;16.58;2.58;;;;;;;17.01;63.10;99893.28;4958871;28;20125;-67
2021/03/23 05:51:40;;;;;;;14.77;3.55;;;;;;;16.93;63.09;99889.06;4972328;28;20038;-67
2021/03/23 05:54:18;;;;;;;13.65;2.72;;;;;;;16.88;63.26;99891.81;4973218;28;20061;-66
2021/03/23 05:56:47;;;;;;;23.20;3.60;;;;;;;16.80;62.91;99893.81;4959200;28;20150;-66
2021/03/23 05:59:17;;;;;;;18.58;3.75;;;;;;;16.84;62.63;99894.63;4972370;28;20041;-67
2021/03/23 06:01:51;;;;;;;26.73;3.70;;;;;;;16.94;62.47;99890.78;4972383;28;20113;-66
2021/03/23 06:04:27;;;;;;;15.90;3.35;;;;;;;17.13;61.86;99882.31;4972208;28;20115;-66
2021/03/23 06:07:01;;;;;;;22.90;4.40;;;;;;;17.36;61.65;99881.72;4971621;28;20177;-66
2021/03/23 06:09:31;;;;;;;17.08;3.17;;;;;;;17.52;61.41;99880.38;4972452;28;20039;-67
2021/03/23 06:12:12;;;;;;;15.65;2.97;;;;;;;17.54;61.11;99889.22;4962257;28;20150;-66
2021/03/23 06:14:48;;;;;;;13.65;3.25;;;;;;;17.66;60.78;99888.06;4953899;28;20067;-66
2021/03/23 06:17:29;;;;;;;18.92;3.03;;;;;;;17.83;60.42;99884.94;4966823;28;20043;-66
2021/03/23 06:20:05;;;;;;;15.88;2.60;;;;;;;18.10;60.02;99881.47;4972472;28;20050;-66
2021/03/23 06:22:41;;;;;;;17.10;4.00;;;;;;;18.40;59.38;99870.78;4963207;28;20121;-66
2021/03/23 06:25:25;;;;;;;19.05;4.05;;;;;;;18.28;58.79;99872.91;4970911;28;20077;-66
2021/03/23 06:27:55;;;;;;;39.33;12.73;;;;;;;18.21;59.09;99865.13;4954278;28;20046;-67
2021/03/23 06:30:42;;;;;;;20.58;4.80;;;;;;;18.15;59.03;99874.19;4950869;28;20063;-67
2021/03/23 06:33:13;;;;;;;16.83;6.35;;;;;;;18.15;58.95;99871.53;4964147;28;20049;-66
2021/03/23 06:35:43;;;;;;;20.20;3.42;;;;;;;18.20;58.88;99879.38;4962330;28;20143;-66
2021/03/23 06:38:22;;;;;;;15.30;4.05;;;;;;;18.24;58.60;99873.94;4951522;28;20043;-66
2021/03/23 06:41:12;;;;;;;18.98;3.45;;;;;;;18.28;58.63;99875.56;4959023;28;20047;-66
2021/03/23 06:43:41;;;;;;;11.27;3.08;;;;;;;18.30;58.60;99875.53;4954457;28;20194;-66
2021/03/23 06:46:22;;;;;;;16.52;3.03;;;;;;;18.43;58.09;99884.06;4964091;28;20513;-66
2021/03/23 06:49:07;;;;;;;14.00;2.35;;;;;;;18.35;58.29;99881.63;4971511;28;20496;-64
2021/03/23 06:51:35;;;;;;;10.80;2.20;;;;;;;18.40;58.35;99887.69;4971565;28;20129;-66
2021/03/23 06:54:18;;;;;;;15.60;2.90;;;;;;;18.45;58.13;99893.75;4971628;28;20043;-66
2021/03/23 06:56:45;;;;;;;12.95;3.25;;;;;;;18.50;58.01;99891.84;4970506;28;20039;-66
2021/03/23 06:59:16;;;;;;;10.07;2.38;;;;;;;18.58;57.38;99892.50;4971416;28;20047;-66
2021/03/23 07:01:44;;;;;;;9.35;2.00;;;;;;;18.56;57.33;99890.81;4971445;28;20050;-66
2021/03/23 07:04:38;;;;;;;9.80;1.88;;;;;;;18.53;57.34;99890.84;4970329;28;20531;-66
2021/03/23 07:07:18;;;;;;;11.60;3.45;;;;;;;18.42;57.60;99885.84;4969963;28;20326;-66
2021/03/23 07:09:53;;;;;;;13.63;5.05;;;;;;;18.23;57.90;99885.53;4951901;28;20040;-66
2021/03/23 07:12:36;;;;;;;18.50;5.68;;;;;;;18.08;57.90;99880.63;4970974;28;20043;-66
2021/03/23 07:15:11;;;;;;;14.55;3.72;;;;;;;18.07;57.36;99881.56;4969386;28;20042;-66
2021/03/23 07:17:42;;;;;;;18.90;7.20;;;;;;;17.99;56.79;99880.00;4970599;28;20045;-66
2021/03/23 07:20:21;;;;;;;13.13;3.90;;;;;;;17.97;56.94;99881.88;4971342;28;20125;-66
2021/03/23 07:22:51;;;;;;;12.65;3.70;;;;;;;17.91;57.11;99885.59;4970239;28;20721;-66
2021/03/23 07:25:36;;;;;;;11.02;3.15;;;;;;;17.84;57.14;99884.91;4970640;28;20047;-66
2021/03/23 07:28:27;;;;;;;;;;;;;;;17.85;57.02;99891.97;4970988;28;20050;-67
2021/03/23 07:31:06;;;;;;;10.57;3.95;;;;;;;18.05;56.70;99883.38;4953745;28;19922;-66
2021/03/23 07:33:51;;;;;;;10.57;2.65;;;;;;;18.12;56.25;99881.41;4970808;28;20038;-66
2021/03/23 07:36:26;;;;;;;9.80;2.45;;;;;;;18.21;55.62;99882.03;4969597;28;20047;-66
2021/03/23 07:38:58;;;;;;;10.05;2.63;;;;;;;18.32;55.54;99877.22;4969704;28;20443;-67
2021/03/23 07:41:30;;;;;;;7.65;1.88;;;;;;;18.52;54.94;99871.25;4970310;28;20514;-66
2021/03/23 07:44:04;;;;;;;7.50;3.00;;;;;;;18.62;54.51;99871.91;4970616;28;20547;-66
2021/03/23 07:46:37;;;;;;;9.90;4.00;;;;;;;18.44;54.31;99875.13;4990766;28;20492;-66
2021/03/23 07:49:21;;;;;;;6.68;2.25;;;;;;;18.42;54.17;99872.50;4975558;28;20046;-67
2021/03/23 07:51:57;;;;;;;8.45;3.70;;;;;;;18.57;53.96;99880.06;4977231;28;20428;-66
2021/03/23 07:54:33;;;;;;;13.23;5.72;;;;;;;18.63;53.15;99882.56;4973801;28;20045;-67
2021/03/23 07:57:37;;;;;;;13.48;5.80;;;;;;;18.65;52.77;99874.47;4980421;28;20039;-66
2021/03/23 08:00:18;;;;;;;13.00;4.20;;;;;;;18.72;52.87;99870.66;4964658;28;20043;-66
2021/03/23 08:03:01;;;;;;;8.23;2.08;;;;;;;18.80;52.10;99875.78;4973010;28;20066;-66
2021/03/23 08:05:40;;;;;;;13.02;3.70;;;;;;;18.83;51.66;99871.22;4972397;28;20045;-67
2021/03/23 08:08:27;;;;;;;5.97;2.17;;;;;;;18.96;51.49;99875.25;4975907;28;20050;-66
2021/03/23 08:11:04;;;;;;;15.68;2.92;;;;;;;18.98;51.32;99873.38;4977322;28;20137;-66
2021/03/23 08:13:48;;;;;;;9.90;3.10;;;;;;;19.01;51.14;99869.75;4970627;28;20070;-67
2021/03/23 08:16:34;;;;;;;13.23;3.10;;;;;;;19.24;51.73;99880.53;4973570;28;20731;-66
2021/03/23 08:19:37;;;;;;;10.07;2.97;;;;;;;19.38;51.59;99878.25;4974770;28;20051;-65
2021/03/23 08:22:23;;;;;;;12.13;2.72;;;;;;;19.43;51.60;99884.31;4974400;28;20069;-66
2021/03/23 08:25:05;;;;;;;14.35;3.08;;;;;;;19.53;51.42;99879.56;4976907;28;20043;-66
2021/03/23 08:27:59;;;;;;;13.43;2.20;;;;;;;19.48;51.04;99886.88;4959578;28;20067;-67
2021/03/23 08:30:37;;;;;;;14.13;3.33;;;;;;;19.37;51.53;99883.66;4978387;28;20064;-66
2021/03/23 08:33:19;;;;;;;9.05;2.38;;;;;;;19.24;51.91;99882.31;4976368;28;20039;-66
2021/03/23 08:36:04;;;;;;;14.75;2.53;;;;;;;19.17;52.07;99878.09;4985751;28;20049;-66
2021/03/23 08:38:42;;;;;;;13.82;3.55;;;;;;;19.10;52.15;99885.47;4970091;28;20047;-66
2021/03/23 08:41:21;;;;;;;10.80;3.15;;;;;;;18.86;52.30;99876.47;4971856;28;20059;-66
2021/03/23 08:43:49;;;;;;;11.40;2.78;;;;;;;18.64;52.55;99872.75;4960136;28;20539;-66
2021/03/23 08:46:20;;;;;;;16.25;4.43;;;;;;;17.97;55.23;99882.75;4971650;28;20039;-66
2021/03/23 08:48:53;;;;;;;12.63;3.30;;;;;;;17.28;57.76;99875.69;4960419;28;20094;-66
2021/03/23 08:51:23;;;;;;;11.57;2.97;;;;;;;16.85;59.31;99878.59;4975193;28;20647;-66
2021/03/23 08:53:55;;;;;;;8.75;4.32;;;;;;;16.69;60.08;99886.06;4975511;28;20073;-66
2021/03/23 08:57:10;;;;;;;9.73;2.75;;;;;;;16.84;59.80;99889.28;4956655;28;20036;-66
2021/03/23 08:59:51;;;;;;;11.80;3.10;;;;;;;16.96;59.01;99884.53;4973268;28;20046;-66
2021/03/23 09:02:45;;;;;;;16.15;5.80;;;;;;;17.11;58.55;99891.28;4973887;28;20077;-66
2021/03/23 09:05:39;;;;;;;11.10;3.63;;;;;;;17.21;58.31;99884.78;4973834;28;20121;-66
2021/03/23 09:08:35;;;;;;;8.32;2.20;;;;;;;17.38;57.72;99885.25;4973558;28;20046;-66
2021/03/23 09:11:07;;;;;;;10.40;2.58;;;;;;;17.63;57.32;99885.47;4973388;28;20046;-65
2021/03/23 09:14:14;;;;;;;13.50;3.28;;;;;;;17.94;57.33;99882.81;4973256;28;20038;-66
2021/03/23 09:17:09;;;;;;;13.30;2.47;;;;;;;17.95;56.56;99881.03;4955696;28;20039;-66
2021/03/23 09:19:40;;;;;;;7.30;2.55;;;;;;;17.86;56.69;99874.16;4970455;28;20669;-66
2021/03/23 09:22:25;;;;;;;14.55;6.25;;;;;;;17.89;55.55;99868.72;4973848;28;20142;-66
2021/03/23 09:25:20;;;;;;;11.55;3.63;;;;;;;18.06;54.21;99865.56;4973323;28;20053;-66
2021/03/23 09:28:01;;;;;;;7.63;2.47;;;;;;;18.20;53.84;99863.34;4973216;28;20050;-66
2021/03/23 09:30:53;;;;;;;8.27;2.70;;;;;;;18.43;53.13;99865.34;4973110;28;20708;-65
2021/03/23 09:33:47;;;;;;;11.25;4.22;;;;;;;18.48;52.65;99855.38;4973378;28;20054;-66
2021/03/23 09:36:39;;;;;;;8.63;3.05;;;;;;;18.46;52.32;99866.13;4973196;28;20038;-66
2021/03/23 09:39:33;;;;;;;8.75;3.28;;;;;;;18.42;52.13;99856.44;4972932;28;20630;-67
2021/03/23 09:42:30;;;;;;;7.05;3.17;;;;;;;18.43;51.71;99860.88;4972611;28;20039;-66
2021/03/23 09:45:36;;;;;;;7.95;2.40;;;;;;;18.65;51.44;99855.75;4973114;28;20097;-66
2021/03/23 09:48:28;;;;;;;6.70;2.08;;;;;;;18.91;51.04;99870.94;4973008;28;20050;-66
2021/03/23 09:51:04;;;;;;;7.20;2.47;;;;;;;19.04;50.10;99864.25;4972586;28;20134;-67
2021/03/23 09:53:35;;;;;;;5.72;3.05;;;;;;;19.06;49.67;99857.94;4972740;28;20047;-67
2021/03/23 09:56:09;;;;;;;7.95;3.55;;;;;;;18.95;49.04;99862.78;4971871;28;20138;-67
2021/03/23 09:58:38;;;;;;;7.73;3.07;;;;;;;18.81;48.48;99856.13;4972546;28;20190;-67
2021/03/23 10:01:13;;;;;;;6.82;2.72;;;;;;;18.73;48.36;99848.38;4972646;28;20094;-67
2021/03/23 10:03:41;;;;;;;7.85;2.40;;;;;;;18.75;48.77;99854.53;4972515;28;20459;-67
2021/03/23 10:06:14;;;;;;;7.03;2.95;;;;;;;18.78;48.19;99853.56;4972733;28;20054;-67
2021/03/23 10:08:54;;;;;;;5.80;1.60;;;;;;;18.76;48.52;99856.31;4971260;28;20054;-67
2021/03/23 10:11:22;;;;;;;5.55;1.60;;;;;;;18.68;47.94;99850.31;4972657;28;20063;-67
2021/03/23 10:13:53;;;;;;;6.72;2.88;;;;;;;18.74;47.74;99850.13;4968334;28;20058;-66
2021/03/23 10:16:26;;;;;;;10.60;2.88;;;;;;;18.98;47.70;99848.41;4957224;28;20450;-67
2021/03/23 10:18:54;;;;;;;4.20;1.60;;;;;;;19.23;46.92;99861.88;4962116;28;20043;-66
2021/03/23 10:21:28;;;;;;;7.20;1.52;;;;;;;19.31;46.33;99863.34;4967171;28;20102;-67
2021/03/23 10:23:57;;;;;;;6.65;1.92;;;;;;;19.17;46.14;99864.72;4968327;28;20125;-66
2021/03/23 10:26:26;;;;;;;9.30;3.20;;;;;;;19.16;46.28;99863.00;4971252;28;20031;-67
2021/03/23 10:28:55;;;;;;;7.03;1.90;;;;;;;19.21;46.29;99840.50;4962220;28;20047;-66
2021/03/23 10:31:34;;;;;;;3.83;1.80;;;;;;;19.53;46.09;99843.88;4967169;28;20126;-67
2021/03/23 10:34:07;;;;;;;8.43;2.13;;;;;;;19.96;45.93;99848.53;4971043;28;20414;-67
2021/03/23 10:36:45;;;;;;;5.93;1.60;;;;;;;20.48;45.57;99851.00;4970879;28;20034;-67
2021/03/23 10:39:47;;;;;;;5.07;1.55;;;;;;;20.85;44.93;99850.41;4952899;28;20500;-67
2021/03/23 10:42:22;;;;;;;5.65;1.77;;;;;;;20.58;45.03;99855.06;4949320;28;20643;-66
2021/03/23 10:44:51;;;;;;;10.27;1.70;;;;;;;20.26;45.16;99848.25;4948449;28;20408;-66
2021/03/23 10:47:31;;;;;;;6.90;1.67;;;;;;;20.01;45.57;99846.59;4938610;29;20058;-67
2021/03/23 10:50:14;;;;;;;4.18;1.20;;;;;;;19.87;45.57;99858.69;4952363;28;20116;-66
2021/03/23 10:52:42;;;;;;;8.20;2.13;;;;;;;19.73;45.60;99858.31;4952210;28;20047;-66
2021/03/23 10:55:25;;;;;;;8.57;2.65;;;;;;;19.70;45.21;99861.09;4950099;29;20069;-66
2021/03/23 10:58:15;;;;;;;7.05;2.17;;;;;;;19.92;45.61;99871.91;4946921;28;20057;-66
2021/03/23 11:00:45;;;;;;;18.58;8.27;;;;;;;20.18;45.75;99861.06;4950131;28;20046;-67
2021/03/23 11:03:16;;;;;;;25.15;11.52;;;;;;;20.53;45.86;99869.59;4951787;28;20053;-67
2021/03/23 11:05:46;;;;;;;19.83;8.90;;;;;;;20.70;45.27;99877.84;4951626;28;20047;-67
2021/03/23 11:08:16;;;;;;;17.75;7.80;;;;;;;20.38;45.41;99883.59;4952280;28;20082;-67
2021/03/23 11:10:43;;;;;;;16.60;7.75;;;;;;;20.05;45.73;99880.34;4951961;28;20389;-66
2021/03/23 11:13:11;;;;;;;14.23;5.70;;;;;;;19.87;45.42;99885.47;4948742;28;20036;-66
2021/03/23 11:15:40;;;;;;;9.82;4.25;;;;;;;19.66;45.28;99893.41;4942284;28;20035;-67
2021/03/23 11:18:15;;;;;;;20.65;7.43;;;;;;;19.36;45.77;99887.28;4944540;28;20397;-67
2021/03/23 11:20:43;;;;;;;15.98;6.20;;;;;;;19.27;45.70;99884.91;4950604;28;20058;-66
2021/03/23 11:23:31;;;;;;;10.07;4.38;;;;;;;19.16;45.26;99884.41;4952228;28;20118;-66
2021/03/23 11:25:58;;;;;;;16.42;6.82;;;;;;;19.08;45.12;99887.34;4949895;28;20055;-67
2021/03/23 11:28:25;;;;;;;22.08;10.63;;;;;;;19.30;44.84;99892.81;4951416;28;20331;-67
2021/03/23 11:30:52;;;;;;;15.70;5.18;;;;;;;19.39;44.21;99887.16;4950369;28;20047;-66
2021/03/23 11:33:19;;;;;;;15.05;4.95;;;;;;;19.54;44.25;99878.66;4957827;28;20077;-66
2021/03/23 11:35:47;;;;;;;17.52;6.63;;;;;;;19.55;44.85;99891.09;4959942;28;20130;-66
2021/03/23 11:38:14;;;;;;;7.75;3.22;;;;;;;19.40;45.17;99883.56;4963935;28;20117;-66
2021/03/23 11:40:43;;;;;;;12.43;4.53;;;;;;;19.16;45.72;99898.66;4969312;28;20033;-66
2021/03/23 11:43:17;;;;;;;7.10;2.30;;;;;;;19.16;45.93;99901.34;4966497;28;20038;-66
2021/03/23 11:45:46;;;;;;;8.93;1.83;;;;;;;19.14;46.20;99896.94;4965872;28;20049;-66
2021/03/23 11:48:18;;;;;;;9.35;2.00;;;;;;;19.21;46.11;99891.34;4954595;28;20381;-66
2021/03/23 11:50:49;;;;;;;9.27;2.92;;;;;;;19.20;46.19;99892.28;4975744;28;20062;-66
2021/03/23 11:53:17;;;;;;;11.80;3.25;;;;;;;19.05;46.56;99892.78;4970482;28;20507;-66
2021/03/23 11:55:46;;;;;;;8.55;3.22;;;;;;;18.80;46.49;99881.13;4970234;28;20070;-66